Time;durP1;ratioP1;P1;durP2;ratioP2;P2;SDS_P1;SDS_P2;PMS_P1;PMS_P2;Temp;Humidity;BMP_temperature;BMP_pressure;BME280_temperature;BME280_humidity;BME280_pressure;Samples;Min_cycle;Max_cycle;Signal;HPM_P1;HPM_P2
2022/11/18 00:02:07;;;;;;;0.40;0.40;;;5.70;99.90;;;;;;4849760;29;20621;-63
2022/11/18 00:04:34;;;;;;;0.40;0.40;;;5.60;99.90;;;;;;4862120;29;20681;-63
2022/11/18 00:07:01;;;;;;;0.40;0.40;;;5.60;99.90;;;;;;4839355;29;20198;-63
2022/11/18 00:09:28;;;;;;;0.40;0.40;;;5.50;99.90;;;;;;4848946;29;20277;-63
2022/11/18 00:14:40;;;;;;;0.40;0.40;;;5.40;28.00;;;;;;4849925;29;20191;-63
2022/11/18 00:17:07;;;;;;;0.40;0.40;;;5.40;1.00;;;;;;4851519;29;20686;-63
2022/11/18 00:19:36;;;;;;;0.40;0.40;;;5.30;1.00;;;;;;4861200;29;20203;-62
2022/11/18 00:22:06;;;;;;;0.40;0.40;;;5.30;1.00;;;;;;4852114;29;20205;-61
2022/11/18 00:24:33;;;;;;;0.40;0.40;;;5.30;1.00;;;;;;4849182;29;20194;-63
2022/11/18 00:26:59;;;;;;;0.40;0.40;;;5.20;1.00;;;;;;4847892;29;20204;-62
2022/11/18 00:29:33;;;;;;;0.40;0.40;;;5.20;1.00;;;;;;4847415;29;20197;-61
2022/11/18 00:32:00;;;;;;;0.40;0.40;;;5.30;1.00;;;;;;4849028;29;20195;-62
2022/11/18 00:34:26;;;;;;;0.40;0.40;;;5.20;1.00;;;;;;4848443;29;20206;-61
2022/11/18 00:36:53;;;;;;;0.50;0.50;;;5.20;1.00;;;;;;4848599;29;20206;-61
2022/11/18 00:39:21;;;;;;;0.50;0.50;;;5.10;1.00;;;;;;4848531;29;20253;-63
2022/11/18 00:44:34;;;;;;;0.40;0.40;;;5.10;1.00;;;;;;4832661;29;20705;-64
2022/11/18 00:47:01;;;;;;;0.97;0.97;;;5.20;1.00;;;;;;4848485;29;20194;-61
2022/11/18 00:49:28;;;;;;;0.40;0.40;;;5.20;1.00;;;;;;4846239;29;20234;-62
2022/11/18 00:51:56;;;;;;;0.43;0.43;;;5.30;95.90;;;;;;4847744;29;20871;-62
2022/11/18 00:54:22;;;;;;;0.50;0.50;;;5.20;95.20;;;;;;4862482;29;20260;-62
2022/11/18 00:56:49;;;;;;;0.40;0.40;;;5.20;99.90;;;;;;4846300;29;20226;-62
2022/11/18 00:59:16;;;;;;;0.40;0.40;;;5.20;99.90;;;;;;4847269;29;20227;-64
2022/11/18 01:01:44;;;;;;;0.40;0.40;;;5.20;99.90;;;;;;4859341;29;20206;-62
2022/11/18 01:04:11;;;;;;;0.40;0.40;;;5.10;13.70;;;;;;4847129;29;20207;-62
2022/11/18 01:06:38;;;;;;;0.40;0.40;;;5.00;1.00;;;;;;4861489;29;20679;-63
2022/11/18 01:09:05;;;;;;;0.40;0.40;;;5.00;1.00;;;;;;4848387;29;20483;-62
2022/11/18 01:14:28;;;;;;;0.40;0.40;;;4.90;1.00;;;;;;4835593;29;20620;-62
2022/11/18 01:16:56;;;;;;;0.40;0.40;;;4.80;1.00;;;;;;4847041;29;20291;-61
2022/11/18 01:19:24;;;;;;;0.40;0.40;;;4.90;1.00;;;;;;4848974;29;20243;-62
2022/11/18 01:21:51;;;;;;;0.40;0.40;;;4.80;1.00;;;;;;4845509;29;20208;-62
2022/11/18 01:24:18;;;;;;;0.40;0.40;;;4.90;57.20;;;;;;4846870;29;20289;-62
2022/11/18 01:26:45;;;;;;;0.40;0.40;;;5.00;99.90;;;;;;4845147;29;20207;-63
2022/11/18 01:29:11;;;;;;;0.43;0.43;;;4.80;80.10;;;;;;4850248;29;20663;-63
2022/11/18 01:31:38;;;;;;;0.40;0.40;;;4.80;1.00;;;;;;4847910;29;20568;-62
2022/11/18 01:34:28;;;;;;;0.40;0.40;;;4.80;1.00;;;;;;4857839;29;20195;-63
2022/11/18 01:36:56;;;;;;;0.40;0.40;;;4.80;1.00;;;;;;4847116;29;20723;-63
2022/11/18 01:39:23;;;;;;;0.40;0.40;;;4.70;1.00;;;;;;4848635;29;20219;-63
2022/11/18 01:41:50;;;;;;;0.40;0.40;;;4.70;1.00;;;;;;4845901;29;20250;-63
2022/11/18 01:44:54;;;;;;;0.40;0.40;;;4.70;1.00;;;;;;4847396;29;20242;-63
2022/11/18 01:47:24;;;;;;;0.40;0.40;;;4.70;1.00;;;;;;4845297;29;20199;-59
2022/11/18 01:49:52;;;;;;;0.47;0.47;;;4.70;1.00;;;;;;4847188;29;20281;-59
2022/11/18 01:52:20;;;;;;;0.40;0.40;;;4.70;1.00;;;;;;4846277;29;20230;-60
2022/11/18 01:54:53;;;;;;;0.40;0.40;;;4.70;1.00;;;;;;4861040;29;20578;-60
2022/11/18 01:57:21;;;;;;;0.40;0.40;;;4.70;1.00;;;;;;4846813;29;20201;-61
2022/11/18 01:59:55;;;;;;;0.40;0.40;;;4.60;1.00;;;;;;4847222;29;20691;-59
2022/11/18 02:02:23;;;;;;;0.40;0.40;;;4.60;1.00;;;;;;4846656;29;20201;-59
2022/11/18 02:04:53;;;;;;;0.40;0.40;;;4.60;1.00;;;;;;4849144;29;20290;-59
2022/11/18 02:07:21;;;;;;;0.40;0.40;;;4.50;1.00;;;;;;4847445;29;20254;-60
2022/11/18 02:09:49;;;;;;;0.40;0.40;;;4.60;1.00;;;;;;4846443;29;20321;-59
2022/11/18 02:12:16;;;;;;;0.40;0.40;;;4.60;1.00;;;;;;4846158;29;20245;-60
2022/11/18 02:14:45;;;;;;;0.40;0.40;;;4.60;1.00;;;;;;4845565;29;20629;-59
2022/11/18 02:17:32;;;;;;;0.40;0.40;;;4.60;31.60;;;;;;4845695;29;20958;-60
2022/11/18 02:20:11;;;;;;;0.40;0.40;;;4.60;99.90;;;;;;4843662;29;21104;-59
2022/11/18 02:22:58;;;;;;;0.40;0.40;;;4.70;90.70;;;;;;4845310;29;20599;-60
2022/11/18 02:25:53;;;;;;;0.40;0.40;;;4.70;99.90;;;;;;4860360;29;20680;-60
2022/11/18 02:28:58;;;;;;;0.40;0.40;;;4.80;99.90;;;;;;4845205;29;20219;-60
2022/11/18 02:31:40;;;;;;;0.40;0.40;;;4.80;99.90;;;;;;4844445;29;20208;-59
2022/11/18 02:34:16;;;;;;;0.40;0.40;;;4.70;13.60;;;;;;4845158;29;20286;-59
2022/11/18 02:37:02;;;;;;;0.40;0.40;;;4.70;1.00;;;;;;4845862;29;20203;-58
2022/11/18 02:39:36;;;;;;;0.40;0.40;;;4.70;1.00;;;;;;4843072;29;20206;-60
2022/11/18 02:42:08;;;;;;;0.40;0.40;;;4.70;1.00;;;;;;4847075;29;20272;-59
2022/11/18 02:44:37;;;;;;;0.40;0.40;;;4.80;1.00;;;;;;4846238;29;20241;-60
2022/11/18 02:47:07;;;;;;;0.40;0.40;;;4.80;18.80;;;;;;4847441;29;21002;-60
2022/11/18 02:49:39;;;;;;;0.40;0.40;;;4.90;1.00;;;;;;4848281;29;20809;-58
2022/11/18 02:52:09;;;;;;;0.40;0.40;;;4.90;1.00;;;;;;4849169;29;20277;-59
2022/11/18 02:54:39;;;;;;;0.40;0.40;;;4.90;1.00;;;;;;4847848;29;20285;-60
2022/11/18 02:57:07;;;;;;;0.40;0.40;;;4.90;1.00;;;;;;4843626;29;20241;-60
2022/11/18 02:59:34;;;;;;;0.40;0.40;;;5.00;1.00;;;;;;4846809;29;20653;-60
2022/11/18 03:02:03;;;;;;;0.40;0.40;;;5.00;1.00;;;;;;4846885;29;20199;-60
2022/11/18 03:04:31;;;;;;;0.40;0.40;;;5.10;1.00;;;;;;4843512;29;20198;-60
2022/11/18 03:07:15;;;;;;;0.40;0.40;;;5.20;1.00;;;;;;4845455;29;20285;-59
2022/11/18 03:09:45;;;;;;;0.40;0.40;;;5.30;1.00;;;;;;4849025;29;20245;-60
2022/11/18 03:12:31;;;;;;;0.50;0.50;;;5.40;1.00;;;;;;4844808;29;20198;-59
2022/11/18 03:15:23;;;;;;;0.40;0.40;;;5.50;99.90;;;;;;4843306;29;20657;-61
2022/11/18 03:18:17;;;;;;;0.40;0.40;;;5.60;99.90;;;;;;4843387;29;20276;-60
2022/11/18 03:21:00;;;;;;;0.40;0.40;;;5.60;1.00;;;;;;4844243;29;20199;-59
2022/11/18 03:24:06;;;;;;;0.40;0.40;;;5.70;1.00;;;;;;4843936;29;20675;-60
2022/11/18 03:26:38;;;;;;;0.40;0.40;;;5.80;1.00;;;;;;4836887;29;20720;-59
2022/11/18 03:29:13;;;;;;;0.40;0.40;;;5.70;99.90;;;;;;4847116;29;20582;-60
2022/11/18 03:31:47;;;;;;;0.40;0.40;;;5.80;99.90;;;;;;4843444;29;20293;-59
2022/11/18 03:34:26;;;;;;;0.40;0.40;;;5.80;88.50;;;;;;4841583;29;20213;-60
2022/11/18 03:36:57;;;;;;;0.40;0.40;;;5.80;1.00;;;;;;4844048;29;20678;-60
2022/11/18 03:39:31;;;;;;;0.40;0.40;;;5.80;1.00;;;;;;4842322;29;20571;-60
2022/11/18 03:42:10;;;;;;;0.40;0.40;;;5.70;99.90;;;;;;4842445;29;20199;-59
2022/11/18 03:44:41;;;;;;;0.40;0.40;;;5.70;99.90;;;;;;4843246;29;20199;-60
2022/11/18 03:47:13;;;;;;;0.40;0.40;;;5.60;99.90;;;;;;4842370;29;20194;-60
2022/11/18 03:49:52;;;;;;;0.40;0.40;;;5.60;99.90;;;;;;4846045;29;20198;-59
2022/11/18 03:52:29;;;;;;;0.40;0.40;;;5.70;99.90;;;;;;4844918;29;20213;-60
2022/11/18 03:55:01;;;;;;;0.37;0.37;;;5.70;99.90;;;;;;4847185;29;20668;-62
2022/11/18 03:57:41;;;;;;;0.40;0.40;;;5.70;99.90;;;;;;4844784;29;20281;-60
2022/11/18 04:00:14;;;;;;;0.40;0.40;;;5.70;99.90;;;;;;4845555;29;20194;-63
2022/11/18 04:02:42;;;;;;;0.40;0.40;;;5.70;99.90;;;;;;4846569;29;20223;-60
2022/11/18 04:05:12;;;;;;;0.40;0.40;;;5.70;99.90;;;;;;4844747;29;20233;-60
2022/11/18 04:07:58;;;;;;;0.50;0.50;;;5.60;28.10;;;;;;4844826;29;20195;-61
2022/11/18 04:10:48;;;;;;;0.40;0.40;;;5.70;65.10;;;;;;4845322;29;20273;-58
2022/11/18 04:13:24;;;;;;;0.40;0.40;;;5.70;99.90;;;;;;4845572;29;20277;-60
2022/11/18 04:15:53;;;;;;;0.40;0.40;;;5.70;99.90;;;;;;4845152;29;20677;-59
2022/11/18 04:18:20;;;;;;;0.40;0.40;;;5.80;99.90;;;;;;4845095;29;20219;-58
2022/11/18 04:20:47;;;;;;;0.40;0.40;;;5.80;99.90;;;;;;4844356;29;20282;-58
2022/11/18 04:23:14;;;;;;;0.40;0.40;;;5.80;99.90;;;;;;4844584;29;20770;-59
2022/11/18 04:25:41;;;;;;;0.40;0.40;;;5.90;1.00;;;;;;4850021;29;20203;-58
2022/11/18 04:28:08;;;;;;;0.40;0.40;;;5.90;1.00;;;;;;4848919;29;20213;-59
2022/11/18 04:30:35;;;;;;;0.40;0.40;;;5.90;1.00;;;;;;4846981;29;20305;-58
2022/11/18 04:33:02;;;;;;;0.40;0.40;;;6.00;60.00;;;;;;4861700;29;20844;-59
2022/11/18 04:35:29;;;;;;;0.40;0.40;;;6.00;99.90;;;;;;4862662;29;20210;-58
2022/11/18 04:37:55;;;;;;;0.40;0.40;;;6.00;99.90;;;;;;4849135;29;20847;-59
2022/11/18 04:40:22;;;;;;;0.40;0.40;;;6.00;1.00;;;;;;4848804;29;20531;-60
2022/11/18 04:42:49;;;;;;;0.40;0.40;;;6.00;1.00;;;;;;4847818;29;20298;-59
2022/11/18 04:45:16;;;;;;;0.40;0.40;;;6.10;4.60;;;;;;4849211;29;20230;-61
2022/11/18 04:47:43;;;;;;;0.40;0.40;;;6.10;94.60;;;;;;4849095;29;20203;-60
2022/11/18 04:50:10;;;;;;;0.40;0.40;;;6.10;91.80;;;;;;4849329;29;20210;-58
2022/11/18 04:52:37;;;;;;;0.40;0.40;;;6.10;99.90;;;;;;4848462;29;20203;-60
2022/11/18 04:55:04;;;;;;;0.40;0.40;;;6.10;99.90;;;;;;4846682;29;20619;-60
2022/11/18 04:57:31;;;;;;;0.40;0.40;;;6.10;99.90;;;;;;4847595;29;20205;-59
2022/11/18 04:59:58;;;;;;;0.47;0.47;;;6.00;99.90;;;;;;4845948;29;20264;-59
2022/11/18 05:02:25;;;;;;;0.40;0.40;;;6.10;99.90;;;;;;4846230;29;20727;-59
2022/11/18 05:04:52;;;;;;;0.40;0.40;;;6.10;99.90;;;;;;4846539;29;20296;-58
2022/11/18 05:07:19;;;;;;;0.40;0.40;;;6.10;1.00;;;;;;4848617;29;20552;-58
2022/11/18 05:09:46;;;;;;;0.40;0.40;;;6.10;1.00;;;;;;4849157;29;20243;-59
2022/11/18 05:15:00;;;;;;;0.40;0.40;;;6.10;1.00;;;;;;4847391;29;20651;-59
2022/11/18 05:17:27;;;;;;;0.40;0.40;;;6.10;1.00;;;;;;4847073;29;20290;-59
2022/11/18 05:19:54;;;;;;;0.40;0.40;;;6.00;1.00;;;;;;4847002;29;20219;-59
2022/11/18 05:22:20;;;;;;;0.40;0.40;;;6.10;1.00;;;;;;4845792;29;20225;-59
2022/11/18 05:24:48;;;;;;;0.40;0.40;;;6.10;1.00;;;;;;4847268;29;20198;-59
2022/11/18 05:27:15;;;;;;;0.40;0.40;;;6.20;1.00;;;;;;4847882;29;20694;-60
2022/11/18 05:29:42;;;;;;;0.40;0.40;;;6.20;1.00;;;;;;4847611;29;20609;-59
2022/11/18 05:32:10;;;;;;;0.50;0.50;;;6.20;1.00;;;;;;4829361;29;20310;-61
2022/11/18 05:34:38;;;;;;;0.40;0.40;;;6.20;1.00;;;;;;4843706;29;20282;-60
2022/11/18 05:37:05;;;;;;;1.40;1.40;;;6.20;1.00;;;;;;4847469;29;20202;-62
2022/11/18 05:39:32;;;;;;;0.40;0.40;;;6.20;1.00;;;;;;4846914;29;20297;-59
2022/11/18 05:44:45;;;;;;;0.40;0.40;;;6.20;1.00;;;;;;4846930;29;21907;-59
2022/11/18 05:47:12;;;;;;;1.50;1.40;;;6.30;1.00;;;;;;4848974;29;20203;-60
2022/11/18 05:49:39;;;;;;;0.40;0.40;;;6.30;1.00;;;;;;4849059;29;20664;-59
2022/11/18 05:52:06;;;;;;;0.40;0.40;;;6.30;1.00;;;;;;4847771;29;20218;-60
2022/11/18 05:54:33;;;;;;;0.40;0.40;;;6.30;1.00;;;;;;4848443;29;20195;-58
2022/11/18 05:57:00;;;;;;;0.40;0.40;;;6.40;1.00;;;;;;4848094;29;20239;-58
2022/11/18 05:59:27;;;;;;;10.00;9.17;;;6.40;1.00;;;;;;4831107;29;20222;-61
2022/11/18 06:02:00;;;;;;;0.40;0.40;;;6.50;1.00;;;;;;4831813;29;20735;-59
2022/11/18 06:04:48;;;;;;;0.40;0.40;;;6.50;1.00;;;;;;4847084;29;20206;-59
2022/11/18 06:07:21;;;;;;;0.40;0.40;;;6.50;1.00;;;;;;4843714;29;20281;-58
2022/11/18 06:09:53;;;;;;;0.50;0.50;;;6.50;1.00;;;;;;4845358;29;20273;-59
2022/11/18 06:12:23;;;;;;;0.40;0.40;;;6.60;1.00;;;;;;4846373;29;20559;-59
2022/11/18 06:14:55;;;;;;;0.40;0.40;;;6.60;1.00;;;;;;4847468;29;20207;-59
2022/11/18 06:17:28;;;;;;;0.40;0.40;;;6.60;1.00;;;;;;4831014;29;20258;-59
2022/11/18 06:19:56;;;;;;;0.50;0.50;;;6.60;1.00;;;;;;4846687;29;20695;-59
2022/11/18 06:22:24;;;;;;;0.40;0.40;;;6.70;99.90;;;;;;4846884;29;20222;-62
2022/11/18 06:24:51;;;;;;;0.40;0.40;;;6.60;99.90;;;;;;4845520;29;20223;-59
2022/11/18 06:27:18;;;;;;;0.40;0.40;;;6.60;99.90;;;;;;4845871;29;20230;-59
2022/11/18 06:29:45;;;;;;;0.40;0.40;;;6.70;99.90;;;;;;4846352;29;20239;-59
2022/11/18 06:32:12;;;;;;;0.40;0.40;;;6.70;99.90;;;;;;4846165;29;20293;-59
2022/11/18 06:34:39;;;;;;;0.40;0.40;;;6.70;99.90;;;;;;4844936;29;20298;-60
2022/11/18 06:37:21;;;;;;;0.40;0.40;;;6.80;99.90;;;;;;4846072;29;20248;-59
2022/11/18 06:39:48;;;;;;;0.40;0.40;;;6.80;99.90;;;;;;4830930;29;20286;-59
2022/11/18 06:43:37;;;;;;;0.50;0.50;;;6.80;99.90;;;;;;4846139;29;20195;-59
2022/11/18 06:45:03;;;;;;;0.40;0.40;;;6.80;99.90;;;;;;4844801;29;20199;-59
2022/11/18 06:47:30;;;;;;;0.40;0.40;;;6.80;99.90;;;;;;4828836;29;20203;-59
2022/11/18 06:49:57;;;;;;;0.40;0.40;;;6.80;99.90;;;;;;4844912;29;20211;-59
2022/11/18 06:52:24;;;;;;;0.40;0.40;;;6.70;1.00;;;;;;4829462;29;20221;-59
2022/11/18 06:54:51;;;;;;;0.40;0.40;;;6.70;1.00;;;;;;4845652;29;20199;-59
2022/11/18 06:57:18;;;;;;;0.40;0.40;;;6.80;99.90;;;;;;4846778;29;20306;-60
2022/11/18 06:59:45;;;;;;;0.40;0.40;;;6.80;99.90;;;;;;4844310;29;20274;-59
2022/11/18 07:02:12;;;;;;;4.10;3.90;;;6.80;1.00;;;;;;4844720;29;20218;-60
2022/11/18 07:04:39;;;;;;;0.40;0.40;;;6.80;3.50;;;;;;4845421;29;20545;-58
2022/11/18 07:07:07;;;;;;;0.40;0.40;;;6.80;99.90;;;;;;4845902;29;20209;-59
2022/11/18 07:09:34;;;;;;;0.50;0.50;;;6.80;1.00;;;;;;4844901;29;20315;-60
2022/11/18 07:12:02;;;;;;;0.40;0.40;;;6.80;1.00;;;;;;4845425;29;20289;-60
2022/11/18 07:14:30;;;;;;;0.40;0.40;;;6.80;99.90;;;;;;4846136;29;20656;-59
2022/11/18 07:16:57;;;;;;;0.40;0.40;;;6.80;99.90;;;;;;4846787;29;20230;-59
2022/11/18 07:19:24;;;;;;;0.40;0.40;;;6.80;99.90;;;;;;4843329;29;20691;-58
2022/11/18 07:21:51;;;;;;;0.40;0.40;;;6.80;1.00;;;;;;4842272;29;20218;-59
2022/11/18 07:24:17;;;;;;;0.40;0.40;;;6.80;1.00;;;;;;4827908;29;20207;-60
2022/11/18 07:26:45;;;;;;;0.40;0.40;;;6.80;1.00;;;;;;4845558;29;20843;-59
2022/11/18 07:29:12;;;;;;;0.40;0.40;;;6.90;1.00;;;;;;4845398;29;20362;-60
2022/11/18 07:31:39;;;;;;;0.40;0.40;;;6.90;1.00;;;;;;4844252;29;20875;-59
2022/11/18 07:34:07;;;;;;;0.40;0.40;;;6.90;1.00;;;;;;4845622;29;20583;-59
2022/11/18 07:36:34;;;;;;;0.40;0.40;;;7.00;1.00;;;;;;4843799;29;20238;-59
2022/11/18 07:39:04;;;;;;;0.40;0.40;;;6.90;1.00;;;;;;4828291;29;20587;-60
2022/11/18 07:41:32;;;;;;;0.40;0.40;;;7.00;1.00;;;;;;4845712;29;20213;-59
2022/11/18 07:44:01;;;;;;;0.40;0.40;;;7.10;1.00;;;;;;4846022;29;20719;-59
2022/11/18 07:46:31;;;;;;;0.40;0.40;;;7.10;1.00;;;;;;4844525;29;20561;-59
2022/11/18 07:49:00;;;;;;;0.40;0.40;;;7.10;1.00;;;;;;4844865;29;20285;-60
2022/11/18 07:51:29;;;;;;;0.40;0.40;;;7.20;1.00;;;;;;4840793;29;20305;-59
2022/11/18 07:53:57;;;;;;;0.30;0.30;;;7.20;1.00;;;;;;4845996;29;20258;-60
2022/11/18 07:56:24;;;;;;;0.40;0.40;;;7.20;99.90;;;;;;4829394;29;20231;-59
2022/11/18 07:58:55;;;;;;;0.30;0.30;;;7.20;1.00;;;;;;4831339;29;20294;-60
2022/11/18 08:01:24;;;;;;;0.40;0.40;;;7.20;1.00;;;;;;4848071;29;20588;-60
2022/11/18 08:03:51;;;;;;;0.50;0.50;;;7.30;1.00;;;;;;4847107;29;20701;-59
2022/11/18 08:06:18;;;;;;;0.40;0.40;;;7.20;1.00;;;;;;4848032;29;20293;-59
2022/11/18 08:08:46;;;;;;;2.63;2.53;;;7.30;1.00;;;;;;4849183;29;20458;-59
2022/11/18 08:11:16;;;;;;;0.40;0.40;;;7.40;1.00;;;;;;4849431;29;20694;-59
2022/11/18 08:13:50;;;;;;;0.40;0.40;;;7.30;1.00;;;;;;4849885;29;20231;-58
2022/11/18 08:16:20;;;;;;;0.40;0.40;;;7.20;1.00;;;;;;4849440;29;20239;-59
2022/11/18 08:18:47;;;;;;;0.40;0.40;;;7.30;1.00;;;;;;4850034;29;20281;-59
2022/11/18 08:21:16;;;;;;;0.47;0.47;;;7.30;1.00;;;;;;4844197;29;20207;-60
2022/11/18 08:23:51;;;;;;;0.40;0.40;;;7.30;1.00;;;;;;4849783;29;20191;-59
2022/11/18 08:26:19;;;;;;;0.40;0.40;;;7.40;1.00;;;;;;4849487;29;20285;-60
2022/11/18 08:28:46;;;;;;;0.43;0.43;;;7.50;1.00;;;;;;4849662;29;20254;-60
2022/11/18 08:31:19;;;;;;;0.40;0.40;;;7.60;1.00;;;;;;4847385;29;20206;-59
2022/11/18 08:33:47;;;;;;;0.40;0.40;;;7.70;1.00;;;;;;4848086;29;20283;-60
2022/11/18 08:36:23;;;;;;;0.40;0.40;;;7.80;1.00;;;;;;4847177;29;20279;-60
2022/11/18 08:38:50;;;;;;;0.40;0.40;;;7.90;99.90;;;;;;4847966;29;20202;-60
2022/11/18 08:41:28;;;;;;;0.40;0.40;;;7.80;99.90;;;;;;4845199;29;20202;-60
2022/11/18 08:43:55;;;;;;;0.40;0.40;;;7.90;99.90;;;;;;4848135;29;20195;-59
2022/11/18 08:46:22;;;;;;;0.40;0.40;;;7.90;99.90;;;;;;4846943;29;20191;-60
2022/11/18 08:48:48;;;;;;;0.40;0.40;;;7.90;99.90;;;;;;4846346;29;20202;-60
2022/11/18 08:51:15;;;;;;;0.40;0.40;;;7.90;99.90;;;;;;4848980;29;20290;-60
2022/11/18 08:53:43;;;;;;;0.40;0.40;;;7.80;15.60;;;;;;4831271;29;20293;-60
2022/11/18 08:56:16;;;;;;;0.40;0.40;;;7.80;1.00;;;;;;4847805;29;20290;-59
2022/11/18 08:58:43;;;;;;;0.40;0.40;;;7.80;1.00;;;;;;4847283;29;20226;-60
2022/11/18 09:01:11;;;;;;;0.40;0.40;;;7.80;1.00;;;;;;4847005;29;20211;-61
2022/11/18 09:03:39;;;;;;;0.40;0.40;;;7.70;1.00;;;;;;4830068;29;20195;-61
2022/11/18 09:06:16;;;;;;;0.30;0.30;;;7.70;1.00;;;;;;4847107;29;20305;-61
2022/11/18 09:08:44;;;;;;;0.40;0.40;;;7.70;1.00;;;;;;4846331;29;20234;-60
2022/11/18 09:11:16;;;;;;;0.40;0.40;;;7.80;1.00;;;;;;4847788;29;20203;-61
2022/11/18 09:13:43;;;;;;;0.40;0.40;;;7.80;1.00;;;;;;4851138;29;20225;-60
2022/11/18 09:16:33;;;;;;;0.40;0.40;;;7.90;1.00;;;;;;4846300;29;20202;-60
2022/11/18 09:19:00;;;;;;;0.40;0.40;;;7.90;1.00;;;;;;4844058;29;20207;-60
2022/11/18 09:21:47;;;;;;;0.40;0.40;;;7.90;1.00;;;;;;4847342;29;20691;-60
2022/11/18 09:24:14;;;;;;;0.57;0.57;;;7.90;1.00;;;;;;4846622;29;20812;-60
2022/11/18 09:26:42;;;;;;;0.93;0.93;;;8.00;1.00;;;;;;4846707;29;20206;-61
2022/11/18 09:29:10;;;;;;;0.40;0.40;;;8.00;1.00;;;;;;4845040;29;20659;-60
2022/11/18 09:31:37;;;;;;;0.40;0.40;;;8.10;1.00;;;;;;4845954;29;20194;-61
2022/11/18 09:34:04;;;;;;;0.40;0.40;;;8.10;1.00;;;;;;4847624;29;20211;-59
2022/11/18 09:36:31;;;;;;;0.40;0.40;;;8.10;1.00;;;;;;4830277;29;20203;-60
2022/11/18 09:38:58;;;;;;;0.30;0.30;;;8.10;1.00;;;;;;4844776;29;20301;-60
2022/11/18 09:41:50;;;;;;;0.40;0.40;;;8.20;1.00;;;;;;4846125;29;20290;-60
2022/11/18 09:44:48;;;;;;;0.40;0.40;;;8.30;1.00;;;;;;4846527;29;20254;-60
2022/11/18 09:47:26;;;;;;;0.40;0.40;;;8.30;1.00;;;;;;4849333;29;20277;-60
2022/11/18 09:49:57;;;;;;;0.40;0.40;;;8.40;1.00;;;;;;4844700;29;20708;-60
2022/11/18 09:52:30;;;;;;;0.40;0.40;;;8.40;1.00;;;;;;4846925;29;20249;-60
2022/11/18 09:55:11;;;;;;;0.40;0.40;;;8.50;1.00;;;;;;4845696;29;20276;-60
2022/11/18 09:57:42;;;;;;;0.40;0.40;;;8.50;1.00;;;;;;4847006;29;20376;-61
2022/11/18 10:00:23;;;;;;;0.40;0.40;;;8.60;1.00;;;;;;4844853;29;20298;-60
2022/11/18 10:03:03;;;;;;;0.40;0.40;;;8.70;1.00;;;;;;4846141;29;20197;-60
2022/11/18 10:05:54;;;;;;;0.40;0.40;;;8.80;1.00;;;;;;4844118;29;20199;-60
2022/11/18 10:08:27;;;;;;;0.40;0.40;;;8.90;1.00;;;;;;4846452;29;20194;-60
2022/11/18 10:11:07;;;;;;;0.40;0.40;;;9.00;1.00;;;;;;4844603;29;20233;-60
2022/11/18 10:13:42;;;;;;;10.40;9.57;;;9.00;1.00;;;;;;4846208;29;20198;-60
2022/11/18 10:16:34;;;;;;;0.40;0.40;;;9.00;1.00;;;;;;4847199;29;20547;-61
2022/11/18 10:19:19;;;;;;;0.40;0.40;;;9.00;1.00;;;;;;4847394;29;20254;-60
2022/11/18 10:22:23;;;;;;;0.40;0.40;;;9.10;1.00;;;;;;4840504;29;20203;-60
2022/11/18 10:24:53;;;;;;;0.30;0.30;;;9.10;1.00;;;;;;4841794;29;20257;-60
2022/11/18 10:27:20;;;;;;;0.40;0.40;;;9.20;1.00;;;;;;4846332;29;20274;-60
2022/11/18 10:29:54;;;;;;;0.40;0.40;;;9.30;1.00;;;;;;4844867;29;20290;-60
2022/11/18 10:32:21;;;;;;;0.40;0.40;;;9.20;99.90;;;;;;4845208;29;20282;-61
2022/11/18 10:34:58;;;;;;;0.40;0.40;;;9.40;99.90;;;;;;4845355;29;20302;-60
2022/11/18 10:37:35;;;;;;;0.40;0.40;;;9.50;99.90;;;;;;4842463;29;20739;-60
2022/11/18 10:40:25;;;;;;;0.40;0.40;;;9.50;1.00;;;;;;4844713;29;20237;-60
2022/11/18 10:42:53;;;;;;;0.40;0.40;;;9.40;99.90;;;;;;4844091;29;20255;-61
2022/11/18 10:45:20;;;;;;;0.40;0.40;;;9.40;1.00;;;;;;4844591;29;20277;-60
2022/11/18 10:48:05;;;;;;;0.40;0.40;;;9.30;1.00;;;;;;4845043;29;20624;-60
2022/11/18 10:50:43;;;;;;;0.40;0.40;;;9.50;1.00;;;;;;4846148;29;20211;-60
2022/11/18 10:53:29;;;;;;;0.40;0.40;;;9.50;16.10;;;;;;4845328;29;20667;-60
2022/11/18 10:56:10;;;;;;;0.40;0.40;;;9.80;1.00;;;;;;4845782;29;20293;-60
2022/11/18 10:58:42;;;;;;;0.40;0.40;;;10.00;99.90;;;;;;4845936;29;20301;-59
2022/11/18 11:01:18;;;;;;;0.40;0.40;;;10.20;1.00;;;;;;4844182;29;20242;-60
2022/11/18 11:04:14;;;;;;;0.40;0.40;;;10.30;47.00;;;;;;4844266;29;20187;-59
2022/11/18 11:06:41;;;;;;;0.40;0.40;;;11.00;85.00;;;;;;4843882;29;20755;-64
2022/11/18 11:09:14;;;;;;;0.40;0.40;;;11.40;1.00;;;;;;4845314;29;20274;-60
2022/11/18 11:11:59;;;;;;;0.20;0.20;;;11.60;1.00;;;;;;4846381;29;20285;-59
2022/11/18 11:14:47;;;;;;;0.30;0.30;;;11.90;99.90;;;;;;4842634;29;20201;-59
2022/11/18 11:17:36;;;;;;;0.30;0.30;;;12.10;99.90;;;;;;4842149;29;20282;-61
2022/11/18 11:20:20;;;;;;;0.20;0.20;;;12.70;99.90;;;;;;4842312;29;20215;-60
2022/11/18 11:22:47;;;;;;;0.30;0.30;;;12.80;99.90;;;;;;4842511;29;20294;-59
2022/11/18 11:25:24;;;;;;;0.43;0.43;;;12.80;84.20;;;;;;4841330;29;20202;-60
2022/11/18 11:27:55;;;;;;;0.30;0.30;;;12.60;66.40;;;;;;4843409;29;20198;-60
2022/11/18 11:31:00;;;;;;;0.70;0.70;;;12.30;60.00;;;;;;4843368;29;20210;-60
2022/11/18 11:33:42;;;;;;;0.33;0.33;;;12.40;94.30;;;;;;4843684;29;20194;-60
2022/11/18 11:36:50;;;;;;;0.20;0.20;;;12.30;95.30;;;;;;4845858;29;20270;-60
2022/11/18 11:39:25;;;;;;;0.30;0.30;;;12.00;99.90;;;;;;4751688;30;20212;-61
2022/11/18 11:42:08;;;;;;;0.30;0.30;;;11.50;99.90;;;;;;4754393;30;20220;-61
2022/11/18 11:44:54;;;;;;;0.40;0.40;;;11.20;99.90;;;;;;4819665;29;20369;-61
2022/11/18 11:47:56;;;;;;;0.40;0.40;;;11.10;99.90;;;;;;4846178;29;20202;-60
2022/11/18 11:50:59;;;;;;;0.20;0.20;;;11.10;99.90;;;;;;4849394;29;20632;-59
2022/11/18 11:53:58;;;;;;;0.30;0.30;;;11.10;99.90;;;;;;4826862;29;20218;-60
2022/11/18 11:56:28;;;;;;;0.30;0.30;;;10.90;99.90;;;;;;4830748;29;20234;-60
2022/11/18 11:59:14;;;;;;;0.30;0.30;;;10.80;99.90;;;;;;4848948;29;20202;-58
2022/11/18 12:01:58;;;;;;;0.30;0.30;;;10.60;99.90;;;;;;4849490;29;20233;-58
2022/11/18 12:04:34;;;;;;;0.40;0.40;;;10.60;99.90;;;;;;4848093;29;20198;-59
2022/11/18 12:07:04;;;;;;;0.40;0.40;;;10.70;99.90;;;;;;4846948;29;20191;-59
2022/11/18 12:09:31;;;;;;;0.30;0.30;;;10.70;99.90;;;;;;4849178;29;20741;-59
2022/11/18 12:12:34;;;;;;;0.40;0.40;;;10.70;99.90;;;;;;4847173;29;20694;-58
2022/11/18 12:15:58;;;;;;;0.40;0.40;;;10.70;99.90;;;;;;4850783;29;20201;-59
2022/11/18 12:18:46;;;;;;;0.40;0.40;;;10.70;99.90;;;;;;4849897;29;20646;-59
2022/11/18 12:21:44;;;;;;;0.50;0.50;;;10.60;99.90;;;;;;4832123;29;20328;-62
2022/11/18 12:24:29;;;;;;;0.40;0.40;;;10.60;99.90;;;;;;4848686;29;20717;-59
2022/11/18 12:27:02;;;;;;;0.40;0.40;;;10.70;99.90;;;;;;4843724;29;20739;-58
2022/11/18 12:29:49;;;;;;;0.40;0.40;;;10.70;1.00;;;;;;4847617;29;20614;-59
2022/11/18 12:32:25;;;;;;;0.40;0.40;;;10.70;1.00;;;;;;4840586;29;20639;-59
2022/11/18 12:34:55;;;;;;;0.40;0.40;;;10.70;1.00;;;;;;4849044;29;20274;-58
2022/11/18 12:37:22;;;;;;;0.40;0.40;;;10.70;1.00;;;;;;4847878;29;20213;-58
2022/11/18 12:39:56;;;;;;;0.40;0.40;;;10.60;1.00;;;;;;4847300;29;20202;-58
2022/11/18 12:45:40;;;;;;;0.40;0.40;;;10.50;1.00;;;;;;4830557;29;20213;-59
2022/11/18 12:48:23;;;;;;;0.40;0.40;;;10.50;1.00;;;;;;4846687;29;20714;-58
2022/11/18 12:50:59;;;;;;;0.40;0.40;;;10.60;1.00;;;;;;4848227;29;20308;-61
2022/11/18 12:53:37;;;;;;;0.40;0.40;;;10.50;1.00;;;;;;4847004;29;20700;-58
2022/11/18 12:56:10;;;;;;;0.40;0.40;;;10.60;1.00;;;;;;4846923;29;20198;-64
2022/11/18 12:58:43;;;;;;;0.40;0.40;;;10.60;1.00;;;;;;4841110;29;20237;-61
2022/11/18 13:01:13;;;;;;;0.40;0.40;;;10.60;1.00;;;;;;4848252;29;20232;-60
2022/11/18 13:03:40;;;;;;;0.40;0.40;;;10.50;1.00;;;;;;4846958;29;20697;-61
2022/11/18 13:06:22;;;;;;;0.40;0.40;;;10.40;1.00;;;;;;4848590;29;20668;-60
2022/11/18 13:09:32;;;;;;;0.40;0.40;;;10.30;1.00;;;;;;4843924;29;20741;-61
2022/11/18 13:12:14;;;;;;;0.40;0.40;;;10.30;1.00;;;;;;4831244;29;20286;-61
2022/11/18 13:20:34;;;;;;;0.40;0.40;;;10.70;1.00;;;;;;4829611;29;20529;-59
2022/11/18 13:26:30;;;;;;;0.40;0.40;;;10.60;1.00;;;;;;4831178;29;20230;-58
2022/11/18 13:29:21;;;;;;;0.40;0.40;;;10.50;1.00;;;;;;4823357;29;20649;-59
2022/11/18 13:32:20;;;;;;;0.40;0.40;;;10.50;1.00;;;;;;4826567;29;20241;-59
2022/11/18 13:34:54;;;;;;;0.40;0.40;;;10.30;1.00;;;;;;4812700;29;20211;-62
2022/11/18 13:37:33;;;;;;;0.40;0.40;;;10.30;1.00;;;;;;4828111;29;20190;-60
2022/11/18 13:40:00;;;;;;;0.40;0.40;;;10.20;95.90;;;;;;4811620;29;20212;-58
2022/11/18 13:42:31;;;;;;;0.40;0.40;;;10.30;99.90;;;;;;4829483;29;20237;-59
2022/11/18 13:45:00;;;;;;;0.30;0.30;;;10.20;90.90;;;;;;4830562;29;20209;-60
2022/11/18 13:47:41;;;;;;;0.40;0.40;;;10.10;99.90;;;;;;4827024;29;20820;-59
2022/11/18 13:50:39;;;;;;;0.40;0.40;;;10.10;99.90;;;;;;4828258;29;20210;-60
2022/11/18 13:53:06;;;;;;;0.40;0.40;;;10.00;99.90;;;;;;4829927;29;20207;-60
2022/11/18 13:55:53;;;;;;;0.40;0.40;;;9.90;1.00;;;;;;4826841;29;20203;-60
2022/11/18 13:58:35;;;;;;;0.40;0.40;;;9.70;99.90;;;;;;4829545;29;20275;-60
2022/11/18 14:01:25;;;;;;;0.53;0.53;;;9.50;1.00;;;;;;4825949;29;20585;-60